sensor_id;sensor_type;location;lat;lon;timestamp;P1;durP1;ratioP1;P2;durP2;ratioP2
17915;SDS011;9083;49.156;8.982;2023-11-21T00:01:20;3.23;;;1.20;;
17915;SDS011;9083;49.156;8.982;2023-11-21T00:03:46;2.27;;;1.33;;
17915;SDS011;9083;49.156;8.982;2023-11-21T00:06:13;1.80;;;1.47;;
17915;SDS011;9083;49.156;8.982;2023-11-21T00:08:40;4.23;;;1.07;;
17915;SDS011;9083;49.156;8.982;2023-11-21T00:11:06;1.20;;;1.10;;
17915;SDS011;9083;49.156;8.982;2023-11-21T00:13:33;2.27;;;1.17;;
17915;SDS011;9083;49.156;8.982;2023-11-21T00:16:00;1.70;;;1.20;;
17915;SDS011;9083;49.156;8.982;2023-11-21T00:18:26;1.17;;;1.00;;
17915;SDS011;9083;49.156;8.982;2023-11-21T00:20:52;1.50;;;1.10;;
17915;SDS011;9083;49.156;8.982;2023-11-21T00:23:20;1.80;;;1.10;;
17915;SDS011;9083;49.156;8.982;2023-11-21T00:25:46;1.60;;;0.83;;
17915;SDS011;9083;49.156;8.982;2023-11-21T00:28:13;2.43;;;1.20;;
17915;SDS011;9083;49.156;8.982;2023-11-21T00:30:39;1.20;;;0.97;;
17915;SDS011;9083;49.156;8.982;2023-11-21T00:33:05;3.73;;;1.27;;
17915;SDS011;9083;49.156;8.982;2023-11-21T00:35:31;2.20;;;1.03;;
17915;SDS011;9083;49.156;8.982;2023-11-21T00:37:58;1.43;;;1.10;;
17915;SDS011;9083;49.156;8.982;2023-11-21T00:40:25;3.60;;;1.40;;
17915;SDS011;9083;49.156;8.982;2023-11-21T00:42:52;1.60;;;1.20;;
17915;SDS011;9083;49.156;8.982;2023-11-21T00:45:18;1.90;;;1.03;;
17915;SDS011;9083;49.156;8.982;2023-11-21T00:47:45;1.23;;;1.00;;
17915;SDS011;9083;49.156;8.982;2023-11-21T00:50:11;4.00;;;0.90;;
17915;SDS011;9083;49.156;8.982;2023-11-21T00:52:38;1.77;;;1.07;;
17915;SDS011;9083;49.156;8.982;2023-11-21T00:55:04;1.73;;;1.13;;
17915;SDS011;9083;49.156;8.982;2023-11-21T00:57:33;2.10;;;1.20;;
17915;SDS011;9083;49.156;8.982;2023-11-21T01:00:00;1.00;;;1.00;;
17915;SDS011;9083;49.156;8.982;2023-11-21T01:02:29;2.03;;;0.87;;
17915;SDS011;9083;49.156;8.982;2023-11-21T01:04:56;2.17;;;1.60;;
17915;SDS011;9083;49.156;8.982;2023-11-21T01:07:22;2.17;;;1.20;;
17915;SDS011;9083;49.156;8.982;2023-11-21T01:09:49;3.97;;;1.20;;
17915;SDS011;9083;49.156;8.982;2023-11-21T01:12:15;4.97;;;1.40;;
17915;SDS011;9083;49.156;8.982;2023-11-21T01:14:44;1.80;;;1.23;;
17915;SDS011;9083;49.156;8.982;2023-11-21T01:17:10;2.83;;;1.20;;
17915;SDS011;9083;49.156;8.982;2023-11-21T01:19:37;2.70;;;1.10;;
17915;SDS011;9083;49.156;8.982;2023-11-21T01:22:03;4.33;;;1.47;;
17915;SDS011;9083;49.156;8.982;2023-11-21T01:24:30;3.73;;;1.20;;
17915;SDS011;9083;49.156;8.982;2023-11-21T01:26:56;1.13;;;1.07;;
17915;SDS011;9083;49.156;8.982;2023-11-21T01:29:22;2.50;;;1.10;;
17915;SDS011;9083;49.156;8.982;2023-11-21T01:31:50;3.60;;;1.43;;
17915;SDS011;9083;49.156;8.982;2023-11-21T01:34:16;1.50;;;1.00;;
17915;SDS011;9083;49.156;8.982;2023-11-21T01:36:43;1.27;;;1.17;;
17915;SDS011;9083;49.156;8.982;2023-11-21T01:39:11;2.53;;;1.10;;
17915;SDS011;9083;49.156;8.982;2023-11-21T01:41:40;4.73;;;1.20;;
17915;SDS011;9083;49.156;8.982;2023-11-21T01:44:09;1.37;;;1.00;;
17915;SDS011;9083;49.156;8.982;2023-11-21T01:46:35;3.10;;;0.90;;
17915;SDS011;9083;49.156;8.982;2023-11-21T01:49:04;3.60;;;0.90;;
17915;SDS011;9083;49.156;8.982;2023-11-21T01:51:30;1.17;;;1.07;;
17915;SDS011;9083;49.156;8.982;2023-11-21T01:53:58;1.20;;;1.20;;
17915;SDS011;9083;49.156;8.982;2023-11-21T01:56:24;3.00;;;1.17;;
17915;SDS011;9083;49.156;8.982;2023-11-21T01:58:51;2.17;;;1.00;;
17915;SDS011;9083;49.156;8.982;2023-11-21T02:01:17;1.40;;;1.00;;
17915;SDS011;9083;49.156;8.982;2023-11-21T02:03:44;2.07;;;1.30;;
17915;SDS011;9083;49.156;8.982;2023-11-21T02:06:12;2.20;;;1.00;;
17915;SDS011;9083;49.156;8.982;2023-11-21T02:08:38;1.00;;;1.00;;
17915;SDS011;9083;49.156;8.982;2023-11-21T02:11:05;2.93;;;1.00;;
17915;SDS011;9083;49.156;8.982;2023-11-21T02:13:31;6.03;;;1.03;;
17915;SDS011;9083;49.156;8.982;2023-11-21T02:15:58;1.20;;;1.20;;
17915;SDS011;9083;49.156;8.982;2023-11-21T02:18:25;1.93;;;1.23;;
17915;SDS011;9083;49.156;8.982;2023-11-21T02:20:54;0.97;;;0.97;;
17915;SDS011;9083;49.156;8.982;2023-11-21T02:23:22;3.33;;;0.90;;
17915;SDS011;9083;49.156;8.982;2023-11-21T02:25:53;3.23;;;0.80;;
17915;SDS011;9083;49.156;8.982;2023-11-21T02:28:20;3.40;;;1.30;;
17915;SDS011;9083;49.156;8.982;2023-11-21T02:30:50;0.90;;;0.90;;
17915;SDS011;9083;49.156;8.982;2023-11-21T02:33:20;0.90;;;0.90;;
17915;SDS011;9083;49.156;8.982;2023-11-21T02:35:47;3.03;;;1.00;;
17915;SDS011;9083;49.156;8.982;2023-11-21T02:38:13;0.83;;;0.83;;
17915;SDS011;9083;49.156;8.982;2023-11-21T02:40:42;1.77;;;1.10;;
17915;SDS011;9083;49.156;8.982;2023-11-21T02:43:08;2.50;;;0.93;;
17915;SDS011;9083;49.156;8.982;2023-11-21T02:45:34;0.90;;;0.90;;
17915;SDS011;9083;49.156;8.982;2023-11-21T02:48:01;4.37;;;1.13;;
17915;SDS011;9083;49.156;8.982;2023-11-21T02:50:28;1.10;;;1.10;;
17915;SDS011;9083;49.156;8.982;2023-11-21T02:52:54;1.50;;;1.10;;
17915;SDS011;9083;49.156;8.982;2023-11-21T02:55:22;2.50;;;1.37;;
17915;SDS011;9083;49.156;8.982;2023-11-21T02:57:51;3.03;;;1.10;;
17915;SDS011;9083;49.156;8.982;2023-11-21T03:00:17;0.90;;;0.90;;
17915;SDS011;9083;49.156;8.982;2023-11-21T03:02:43;1.53;;;1.17;;
17915;SDS011;9083;49.156;8.982;2023-11-21T03:05:10;1.07;;;1.00;;
17915;SDS011;9083;49.156;8.982;2023-11-21T03:07:37;2.90;;;1.10;;
17915;SDS011;9083;49.156;8.982;2023-11-21T03:10:04;0.97;;;0.90;;
17915;SDS011;9083;49.156;8.982;2023-11-21T03:12:30;2.10;;;1.30;;
17915;SDS011;9083;49.156;8.982;2023-11-21T03:14:58;1.70;;;1.13;;
17915;SDS011;9083;49.156;8.982;2023-11-21T03:17:24;4.47;;;1.30;;
17915;SDS011;9083;49.156;8.982;2023-11-21T03:19:51;3.77;;;1.20;;
17915;SDS011;9083;49.156;8.982;2023-11-21T03:22:18;2.50;;;1.23;;
17915;SDS011;9083;49.156;8.982;2023-11-21T03:24:44;1.27;;;1.17;;
17915;SDS011;9083;49.156;8.982;2023-11-21T03:27:10;1.10;;;1.10;;
17915;SDS011;9083;49.156;8.982;2023-11-21T03:29:37;1.20;;;0.90;;
17915;SDS011;9083;49.156;8.982;2023-11-21T03:32:06;1.37;;;1.30;;
17915;SDS011;9083;49.156;8.982;2023-11-21T03:34:32;0.97;;;0.97;;
17915;SDS011;9083;49.156;8.982;2023-11-21T03:36:59;1.20;;;1.20;;
17915;SDS011;9083;49.156;8.982;2023-11-21T03:39:25;2.17;;;1.30;;
17915;SDS011;9083;49.156;8.982;2023-11-21T03:41:51;2.97;;;1.00;;
17915;SDS011;9083;49.156;8.982;2023-11-21T03:44:18;4.20;;;1.20;;
17915;SDS011;9083;49.156;8.982;2023-11-21T03:46:44;2.10;;;1.17;;
17915;SDS011;9083;49.156;8.982;2023-11-21T03:49:11;1.87;;;1.07;;
17915;SDS011;9083;49.156;8.982;2023-11-21T03:51:38;1.30;;;1.30;;
17915;SDS011;9083;49.156;8.982;2023-11-21T03:54:04;1.17;;;1.17;;
17915;SDS011;9083;49.156;8.982;2023-11-21T03:56:30;0.93;;;0.93;;
17915;SDS011;9083;49.156;8.982;2023-11-21T03:58:57;2.33;;;1.20;;
17915;SDS011;9083;49.156;8.982;2023-11-21T04:01:23;1.63;;;1.53;;
17915;SDS011;9083;49.156;8.982;2023-11-21T04:03:50;1.20;;;1.20;;
17915;SDS011;9083;49.156;8.982;2023-11-21T04:06:18;2.80;;;1.13;;
17915;SDS011;9083;49.156;8.982;2023-11-21T04:08:44;1.33;;;1.33;;
17915;SDS011;9083;49.156;8.982;2023-11-21T04:11:11;0.90;;;0.90;;
17915;SDS011;9083;49.156;8.982;2023-11-21T04:13:37;1.20;;;1.20;;
17915;SDS011;9083;49.156;8.982;2023-11-21T04:16:04;2.43;;;1.10;;
17915;SDS011;9083;49.156;8.982;2023-11-21T04:18:31;2.07;;;1.10;;
17915;SDS011;9083;49.156;8.982;2023-11-21T04:20:57;1.07;;;1.00;;
17915;SDS011;9083;49.156;8.982;2023-11-21T04:23:25;2.43;;;1.10;;
17915;SDS011;9083;49.156;8.982;2023-11-21T04:25:51;2.50;;;1.10;;
17915;SDS011;9083;49.156;8.982;2023-11-21T04:28:19;1.57;;;1.00;;
17915;SDS011;9083;49.156;8.982;2023-11-21T04:30:45;5.97;;;1.20;;
17915;SDS011;9083;49.156;8.982;2023-11-21T04:33:12;2.43;;;1.00;;
17915;SDS011;9083;49.156;8.982;2023-11-21T04:35:38;3.33;;;1.20;;
17915;SDS011;9083;49.156;8.982;2023-11-21T04:38:04;0.90;;;0.90;;
17915;SDS011;9083;49.156;8.982;2023-11-21T04:40:32;1.20;;;1.20;;
17915;SDS011;9083;49.156;8.982;2023-11-21T04:42:58;1.63;;;1.00;;
17915;SDS011;9083;49.156;8.982;2023-11-21T04:45:24;3.10;;;1.30;;
17915;SDS011;9083;49.156;8.982;2023-11-21T04:47:51;3.70;;;1.10;;
17915;SDS011;9083;49.156;8.982;2023-11-21T04:50:17;0.90;;;0.90;;
17915;SDS011;9083;49.156;8.982;2023-11-21T04:52:44;1.43;;;0.90;;
17915;SDS011;9083;49.156;8.982;2023-11-21T04:55:10;1.47;;;1.37;;
17915;SDS011;9083;49.156;8.982;2023-11-21T04:57:38;1.13;;;1.03;;
17915;SDS011;9083;49.156;8.982;2023-11-21T05:00:06;1.53;;;1.10;;
17915;SDS011;9083;49.156;8.982;2023-11-21T05:02:33;1.47;;;1.47;;
17915;SDS011;9083;49.156;8.982;2023-11-21T05:05:01;1.03;;;1.00;;
17915;SDS011;9083;49.156;8.982;2023-11-21T05:07:30;0.90;;;0.90;;
17915;SDS011;9083;49.156;8.982;2023-11-21T05:09:57;1.23;;;1.23;;
17915;SDS011;9083;49.156;8.982;2023-11-21T05:12:23;1.43;;;1.33;;
17915;SDS011;9083;49.156;8.982;2023-11-21T05:14:51;5.43;;;1.50;;
17915;SDS011;9083;49.156;8.982;2023-11-21T05:17:17;5.37;;;1.40;;
17915;SDS011;9083;49.156;8.982;2023-11-21T05:19:44;1.33;;;1.10;;
17915;SDS011;9083;49.156;8.982;2023-11-21T05:22:11;1.30;;;1.20;;
17915;SDS011;9083;49.156;8.982;2023-11-21T05:24:37;1.73;;;1.07;;
17915;SDS011;9083;49.156;8.982;2023-11-21T05:27:04;1.13;;;1.10;;
17915;SDS011;9083;49.156;8.982;2023-11-21T05:29:30;2.53;;;1.30;;
17915;SDS011;9083;49.156;8.982;2023-11-21T05:31:58;1.33;;;1.30;;
17915;SDS011;9083;49.156;8.982;2023-11-21T05:34:24;1.57;;;1.27;;
17915;SDS011;9083;49.156;8.982;2023-11-21T05:36:51;2.83;;;1.40;;
17915;SDS011;9083;49.156;8.982;2023-11-21T05:39:18;2.80;;;1.40;;
17915;SDS011;9083;49.156;8.982;2023-11-21T05:41:45;1.57;;;1.43;;
17915;SDS011;9083;49.156;8.982;2023-11-21T05:44:12;1.33;;;1.23;;
17915;SDS011;9083;49.156;8.982;2023-11-21T05:46:40;1.73;;;1.27;;
17915;SDS011;9083;49.156;8.982;2023-11-21T05:49:09;1.70;;;1.60;;
17915;SDS011;9083;49.156;8.982;2023-11-21T05:51:36;1.67;;;1.57;;
17915;SDS011;9083;49.156;8.982;2023-11-21T05:54:02;3.07;;;1.40;;
17915;SDS011;9083;49.156;8.982;2023-11-21T05:56:29;4.23;;;1.57;;
17915;SDS011;9083;49.156;8.982;2023-11-21T05:58:55;1.40;;;1.30;;
17915;SDS011;9083;49.156;8.982;2023-11-21T06:01:21;1.70;;;1.60;;
17915;SDS011;9083;49.156;8.982;2023-11-21T06:03:48;6.53;;;1.83;;
17915;SDS011;9083;49.156;8.982;2023-11-21T06:06:15;7.80;;;2.03;;
17915;SDS011;9083;49.156;8.982;2023-11-21T06:08:42;5.37;;;1.67;;
17915;SDS011;9083;49.156;8.982;2023-11-21T06:11:08;3.03;;;1.50;;
17915;SDS011;9083;49.156;8.982;2023-11-21T06:13:36;1.83;;;1.73;;
17915;SDS011;9083;49.156;8.982;2023-11-21T06:16:03;2.40;;;1.63;;
17915;SDS011;9083;49.156;8.982;2023-11-21T06:18:29;1.87;;;1.70;;
17915;SDS011;9083;49.156;8.982;2023-11-21T06:20:56;1.67;;;1.57;;
17915;SDS011;9083;49.156;8.982;2023-11-21T06:23:24;1.90;;;1.80;;
17915;SDS011;9083;49.156;8.982;2023-11-21T06:25:51;1.90;;;1.80;;
17915;SDS011;9083;49.156;8.982;2023-11-21T06:28:18;2.17;;;1.97;;
17915;SDS011;9083;49.156;8.982;2023-11-21T06:30:44;1.97;;;1.83;;
17915;SDS011;9083;49.156;8.982;2023-11-21T06:33:10;3.17;;;1.47;;
17915;SDS011;9083;49.156;8.982;2023-11-21T06:35:37;1.67;;;1.57;;
17915;SDS011;9083;49.156;8.982;2023-11-21T06:38:03;5.33;;;1.73;;
17915;SDS011;9083;49.156;8.982;2023-11-21T06:40:31;1.80;;;1.67;;
17915;SDS011;9083;49.156;8.982;2023-11-21T06:42:58;3.70;;;2.20;;
17915;SDS011;9083;49.156;8.982;2023-11-21T06:45:25;3.43;;;2.33;;
17915;SDS011;9083;49.156;8.982;2023-11-21T06:47:52;5.03;;;2.30;;
17915;SDS011;9083;49.156;8.982;2023-11-21T06:50:18;6.70;;;2.33;;
17915;SDS011;9083;49.156;8.982;2023-11-21T06:52:46;6.33;;;2.83;;
17915;SDS011;9083;49.156;8.982;2023-11-21T06:55:12;2.80;;;2.60;;
17915;SDS011;9083;49.156;8.982;2023-11-21T06:57:40;4.90;;;2.93;;
17915;SDS011;9083;49.156;8.982;2023-11-21T07:00:06;6.23;;;2.30;;
17915;SDS011;9083;49.156;8.982;2023-11-21T07:02:34;2.20;;;2.10;;
17915;SDS011;9083;49.156;8.982;2023-11-21T07:05:00;5.30;;;2.67;;
17915;SDS011;9083;49.156;8.982;2023-11-21T07:07:26;2.50;;;2.30;;
17915;SDS011;9083;49.156;8.982;2023-11-21T07:09:53;4.20;;;2.47;;
17915;SDS011;9083;49.156;8.982;2023-11-21T07:12:19;2.27;;;2.17;;
17915;SDS011;9083;49.156;8.982;2023-11-21T07:14:50;6.77;;;3.47;;
17915;SDS011;9083;49.156;8.982;2023-11-21T07:17:16;4.17;;;2.90;;
17915;SDS011;9083;49.156;8.982;2023-11-21T07:19:42;3.33;;;2.60;;
17915;SDS011;9083;49.156;8.982;2023-11-21T07:22:09;4.90;;;2.70;;
17915;SDS011;9083;49.156;8.982;2023-11-21T07:24:36;5.23;;;2.73;;
17915;SDS011;9083;49.156;8.982;2023-11-21T07:27:03;3.10;;;2.80;;
17915;SDS011;9083;49.156;8.982;2023-11-21T07:29:30;3.70;;;2.30;;
17915;SDS011;9083;49.156;8.982;2023-11-21T07:31:58;2.70;;;2.50;;
17915;SDS011;9083;49.156;8.982;2023-11-21T07:34:25;3.77;;;3.17;;
17915;SDS011;9083;49.156;8.982;2023-11-21T07:36:51;3.70;;;2.40;;
17915;SDS011;9083;49.156;8.982;2023-11-21T07:39:17;2.77;;;2.57;;
17915;SDS011;9083;49.156;8.982;2023-11-21T07:41:44;2.90;;;2.60;;
17915;SDS011;9083;49.156;8.982;2023-11-21T07:44:13;5.07;;;2.50;;
17915;SDS011;9083;49.156;8.982;2023-11-21T07:46:39;4.23;;;2.63;;
17915;SDS011;9083;49.156;8.982;2023-11-21T07:49:07;3.47;;;2.70;;
17915;SDS011;9083;49.156;8.982;2023-11-21T07:51:34;2.73;;;2.53;;
17915;SDS011;9083;49.156;8.982;2023-11-21T07:54:00;2.37;;;2.27;;
17915;SDS011;9083;49.156;8.982;2023-11-21T07:56:26;2.17;;;2.07;;
17915;SDS011;9083;49.156;8.982;2023-11-21T07:58:53;2.77;;;2.50;;
17915;SDS011;9083;49.156;8.982;2023-11-21T08:01:19;2.40;;;2.30;;
17915;SDS011;9083;49.156;8.982;2023-11-21T08:03:46;2.60;;;2.40;;
17915;SDS011;9083;49.156;8.982;2023-11-21T08:06:18;2.93;;;2.73;;
17915;SDS011;9083;49.156;8.982;2023-11-21T08:08:44;3.93;;;2.40;;
17915;SDS011;9083;49.156;8.982;2023-11-21T08:11:11;2.47;;;2.13;;
17915;SDS011;9083;49.156;8.982;2023-11-21T08:13:37;3.00;;;2.17;;
17915;SDS011;9083;49.156;8.982;2023-11-21T08:16:04;2.43;;;2.30;;
17915;SDS011;9083;49.156;8.982;2023-11-21T08:18:32;2.17;;;1.90;;
17915;SDS011;9083;49.156;8.982;2023-11-21T08:20:59;2.33;;;1.90;;
17915;SDS011;9083;49.156;8.982;2023-11-21T08:23:26;2.40;;;2.20;;
17915;SDS011;9083;49.156;8.982;2023-11-21T08:25:53;2.77;;;2.27;;
17915;SDS011;9083;49.156;8.982;2023-11-21T08:28:20;2.23;;;2.13;;
17915;SDS011;9083;49.156;8.982;2023-11-21T08:30:47;1.83;;;1.73;;
17915;SDS011;9083;49.156;8.982;2023-11-21T08:33:13;2.50;;;1.73;;
17915;SDS011;9083;49.156;8.982;2023-11-21T08:35:40;2.13;;;2.03;;
17915;SDS011;9083;49.156;8.982;2023-11-21T08:38:06;3.77;;;2.47;;
17915;SDS011;9083;49.156;8.982;2023-11-21T08:40:36;2.93;;;2.63;;
17915;SDS011;9083;49.156;8.982;2023-11-21T08:43:02;2.10;;;2.00;;
17915;SDS011;9083;49.156;8.982;2023-11-21T08:45:29;2.70;;;2.10;;
17915;SDS011;9083;49.156;8.982;2023-11-21T08:47:56;4.07;;;3.30;;
17915;SDS011;9083;49.156;8.982;2023-11-21T08:50:22;6.03;;;4.40;;
17915;SDS011;9083;49.156;8.982;2023-11-21T08:52:48;4.40;;;3.70;;
17915;SDS011;9083;49.156;8.982;2023-11-21T08:55:15;3.23;;;3.03;;
17915;SDS011;9083;49.156;8.982;2023-11-21T08:57:43;2.83;;;2.60;;
17915;SDS011;9083;49.156;8.982;2023-11-21T09:00:10;5.47;;;3.17;;
17915;SDS011;9083;49.156;8.982;2023-11-21T09:02:37;2.87;;;2.67;;
17915;SDS011;9083;49.156;8.982;2023-11-21T09:05:04;3.70;;;3.40;;
17915;SDS011;9083;49.156;8.982;2023-11-21T09:07:32;3.00;;;2.80;;
17915;SDS011;9083;49.156;8.982;2023-11-21T09:09:58;2.90;;;2.70;;
17915;SDS011;9083;49.156;8.982;2023-11-21T09:12:24;3.23;;;3.03;;
17915;SDS011;9083;49.156;8.982;2023-11-21T09:14:52;4.57;;;3.33;;
17915;SDS011;9083;49.156;8.982;2023-11-21T09:17:18;3.87;;;3.57;;
17915;SDS011;9083;49.156;8.982;2023-11-21T09:19:45;3.90;;;3.47;;
17915;SDS011;9083;49.156;8.982;2023-11-21T09:22:15;3.90;;;3.60;;
17915;SDS011;9083;49.156;8.982;2023-11-21T09:24:41;3.10;;;2.90;;
17915;SDS011;9083;49.156;8.982;2023-11-21T09:27:07;3.37;;;3.07;;
17915;SDS011;9083;49.156;8.982;2023-11-21T09:29:34;3.17;;;2.97;;
17915;SDS011;9083;49.156;8.982;2023-11-21T09:32:03;3.13;;;2.93;;
17915;SDS011;9083;49.156;8.982;2023-11-21T09:34:31;3.83;;;3.07;;
17915;SDS011;9083;49.156;8.982;2023-11-21T09:36:58;2.90;;;2.70;;
17915;SDS011;9083;49.156;8.982;2023-11-21T09:39:24;4.10;;;3.07;;
17915;SDS011;9083;49.156;8.982;2023-11-21T09:41:51;3.23;;;2.93;;
17915;SDS011;9083;49.156;8.982;2023-11-21T09:44:20;2.80;;;2.60;;
17915;SDS011;9083;49.156;8.982;2023-11-21T09:46:48;4.87;;;2.90;;
17915;SDS011;9083;49.156;8.982;2023-11-21T09:49:16;3.80;;;3.10;;
17915;SDS011;9083;49.156;8.982;2023-11-21T09:51:44;2.70;;;2.50;;
17915;SDS011;9083;49.156;8.982;2023-11-21T09:54:13;6.63;;;2.67;;
17915;SDS011;9083;49.156;8.982;2023-11-21T09:56:41;5.60;;;2.33;;
17915;SDS011;9083;49.156;8.982;2023-11-21T09:59:07;2.10;;;2.00;;
17915;SDS011;9083;49.156;8.982;2023-11-21T10:01:39;4.30;;;1.97;;
17915;SDS011;9083;49.156;8.982;2023-11-21T10:04:06;2.03;;;1.93;;
17915;SDS011;9083;49.156;8.982;2023-11-21T10:06:38;2.33;;;2.13;;
17915;SDS011;9083;49.156;8.982;2023-11-21T10:09:04;2.67;;;2.57;;
17915;SDS011;9083;49.156;8.982;2023-11-21T10:11:36;3.00;;;2.80;;
17915;SDS011;9083;49.156;8.982;2023-11-21T10:14:04;2.47;;;2.27;;
17915;SDS011;9083;49.156;8.982;2023-11-21T10:16:30;2.90;;;2.70;;
17915;SDS011;9083;49.156;8.982;2023-11-21T10:18:57;3.67;;;3.00;;
17915;SDS011;9083;49.156;8.982;2023-11-21T10:21:24;4.23;;;3.50;;
17915;SDS011;9083;49.156;8.982;2023-11-21T10:23:52;3.30;;;3.13;;
17915;SDS011;9083;49.156;8.982;2023-11-21T10:26:19;5.10;;;3.20;;
17915;SDS011;9083;49.156;8.982;2023-11-21T10:28:55;4.07;;;3.53;;
17915;SDS011;9083;49.156;8.982;2023-11-21T10:31:21;3.23;;;2.93;;
17915;SDS011;9083;49.156;8.982;2023-11-21T10:33:49;8.80;;;4.50;;
17915;SDS011;9083;49.156;8.982;2023-11-21T10:36:19;9.00;;;4.33;;
17915;SDS011;9083;49.156;8.982;2023-11-21T10:38:52;5.43;;;4.37;;
17915;SDS011;9083;49.156;8.982;2023-11-21T10:41:18;5.50;;;3.77;;
17915;SDS011;9083;49.156;8.982;2023-11-21T10:43:45;7.67;;;4.50;;
17915;SDS011;9083;49.156;8.982;2023-11-21T10:46:11;8.23;;;5.17;;
17915;SDS011;9083;49.156;8.982;2023-11-21T10:48:37;8.57;;;4.67;;
17915;SDS011;9083;49.156;8.982;2023-11-21T10:51:06;5.87;;;4.90;;
17915;SDS011;9083;49.156;8.982;2023-11-21T10:53:32;7.57;;;5.83;;
17915;SDS011;9083;49.156;8.982;2023-11-21T10:56:05;7.30;;;4.73;;
17915;SDS011;9083;49.156;8.982;2023-11-21T10:58:32;2.10;;;2.00;;
17915;SDS011;9083;49.156;8.982;2023-11-21T11:00:59;1.77;;;1.67;;
17915;SDS011;9083;49.156;8.982;2023-11-21T11:03:25;4.73;;;1.53;;
17915;SDS011;9083;49.156;8.982;2023-11-21T11:05:52;2.43;;;1.07;;
17915;SDS011;9083;49.156;8.982;2023-11-21T11:08:20;2.87;;;1.30;;
17915;SDS011;9083;49.156;8.982;2023-11-21T11:10:51;0.90;;;0.90;;
17915;SDS011;9083;49.156;8.982;2023-11-21T11:13:19;0.80;;;0.80;;
17915;SDS011;9083;49.156;8.982;2023-11-21T11:15:47;1.90;;;0.80;;
17915;SDS011;9083;49.156;8.982;2023-11-21T11:18:13;2.73;;;1.10;;
17915;SDS011;9083;49.156;8.982;2023-11-21T11:20:40;0.80;;;0.80;;
17915;SDS011;9083;49.156;8.982;2023-11-21T11:23:11;0.87;;;0.87;;
17915;SDS011;9083;49.156;8.982;2023-11-21T11:25:45;0.70;;;0.70;;
17915;SDS011;9083;49.156;8.982;2023-11-21T11:28:14;1.00;;;1.00;;
17915;SDS011;9083;49.156;8.982;2023-11-21T11:30:44;1.00;;;1.00;;
17915;SDS011;9083;49.156;8.982;2023-11-21T11:33:14;1.30;;;1.17;;
17915;SDS011;9083;49.156;8.982;2023-11-21T11:35:49;1.03;;;1.03;;
17915;SDS011;9083;49.156;8.982;2023-11-21T11:38:19;1.30;;;1.10;;
17915;SDS011;9083;49.156;8.982;2023-11-21T11:40:47;3.07;;;1.37;;
17915;SDS011;9083;49.156;8.982;2023-11-21T11:43:13;1.10;;;1.10;;
17915;SDS011;9083;49.156;8.982;2023-11-21T11:45:40;1.20;;;1.20;;
17915;SDS011;9083;49.156;8.982;2023-11-21T11:48:10;3.33;;;1.27;;
17915;SDS011;9083;49.156;8.982;2023-11-21T11:50:41;1.30;;;1.27;;
17915;SDS011;9083;49.156;8.982;2023-11-21T11:53:14;1.40;;;1.40;;
17915;SDS011;9083;49.156;8.982;2023-11-21T11:55:41;1.30;;;1.20;;
17915;SDS011;9083;49.156;8.982;2023-11-21T11:58:07;1.10;;;1.10;;
17915;SDS011;9083;49.156;8.982;2023-11-21T12:00:34;1.50;;;1.50;;
17915;SDS011;9083;49.156;8.982;2023-11-21T12:03:03;3.27;;;1.57;;
17915;SDS011;9083;49.156;8.982;2023-11-21T12:05:31;1.20;;;1.17;;
17915;SDS011;9083;49.156;8.982;2023-11-21T12:08:00;1.23;;;1.20;;
17915;SDS011;9083;49.156;8.982;2023-11-21T12:10:27;2.80;;;1.33;;
17915;SDS011;9083;49.156;8.982;2023-11-21T12:12:54;2.30;;;1.50;;
17915;SDS011;9083;49.156;8.982;2023-11-21T12:15:21;1.30;;;1.30;;
17915;SDS011;9083;49.156;8.982;2023-11-21T12:17:48;2.57;;;1.60;;
17915;SDS011;9083;49.156;8.982;2023-11-21T12:20:15;1.40;;;1.40;;
17915;SDS011;9083;49.156;8.982;2023-11-21T12:22:44;1.33;;;1.30;;
17915;SDS011;9083;49.156;8.982;2023-11-21T12:25:13;1.23;;;1.23;;
17915;SDS011;9083;49.156;8.982;2023-11-21T12:27:41;2.57;;;1.27;;
17915;SDS011;9083;49.156;8.982;2023-11-21T12:30:08;1.87;;;1.57;;
17915;SDS011;9083;49.156;8.982;2023-11-21T12:32:38;1.57;;;1.57;;
17915;SDS011;9083;49.156;8.982;2023-11-21T12:35:05;1.50;;;1.40;;
17915;SDS011;9083;49.156;8.982;2023-11-21T12:37:31;3.83;;;1.70;;
17915;SDS011;9083;49.156;8.982;2023-11-21T12:39:59;1.30;;;1.30;;
17915;SDS011;9083;49.156;8.982;2023-11-21T12:42:25;1.77;;;1.63;;
17915;SDS011;9083;49.156;8.982;2023-11-21T12:45:05;2.07;;;1.53;;
17915;SDS011;9083;49.156;8.982;2023-11-21T12:47:33;1.50;;;1.50;;
17915;SDS011;9083;49.156;8.982;2023-11-21T12:50:00;1.50;;;1.40;;
17915;SDS011;9083;49.156;8.982;2023-11-21T12:52:30;1.50;;;1.43;;
17915;SDS011;9083;49.156;8.982;2023-11-21T12:54:58;1.50;;;1.43;;
17915;SDS011;9083;49.156;8.982;2023-11-21T12:57:25;1.87;;;1.70;;
17915;SDS011;9083;49.156;8.982;2023-11-21T12:59:52;1.90;;;1.80;;
17915;SDS011;9083;49.156;8.982;2023-11-21T13:02:19;3.30;;;3.10;;
17915;SDS011;9083;49.156;8.982;2023-11-21T13:04:51;2.00;;;1.90;;
17915;SDS011;9083;49.156;8.982;2023-11-21T13:07:17;1.93;;;1.83;;
17915;SDS011;9083;49.156;8.982;2023-11-21T13:09:45;1.93;;;1.90;;
17915;SDS011;9083;49.156;8.982;2023-11-21T13:12:13;1.80;;;1.70;;
17915;SDS011;9083;49.156;8.982;2023-11-21T13:14:43;1.60;;;1.60;;
17915;SDS011;9083;49.156;8.982;2023-11-21T13:17:11;2.30;;;2.10;;
17915;SDS011;9083;49.156;8.982;2023-11-21T13:19:38;2.83;;;2.23;;
17915;SDS011;9083;49.156;8.982;2023-11-21T13:22:04;2.00;;;1.90;;
17915;SDS011;9083;49.156;8.982;2023-11-21T13:24:31;4.80;;;2.10;;
17915;SDS011;9083;49.156;8.982;2023-11-21T13:26:57;2.77;;;2.57;;
17915;SDS011;9083;49.156;8.982;2023-11-21T13:29:25;2.40;;;2.30;;
17915;SDS011;9083;49.156;8.982;2023-11-21T13:31:52;2.60;;;2.40;;
17915;SDS011;9083;49.156;8.982;2023-11-21T13:34:18;2.07;;;1.97;;
17915;SDS011;9083;49.156;8.982;2023-11-21T13:36:47;2.07;;;1.97;;
17915;SDS011;9083;49.156;8.982;2023-11-21T13:39:13;2.47;;;2.30;;
17915;SDS011;9083;49.156;8.982;2023-11-21T13:41:42;2.67;;;2.47;;
17915;SDS011;9083;49.156;8.982;2023-11-21T13:44:09;2.60;;;2.40;;
17915;SDS011;9083;49.156;8.982;2023-11-21T13:46:42;2.43;;;2.33;;
17915;SDS011;9083;49.156;8.982;2023-11-21T13:49:10;5.10;;;2.70;;
17915;SDS011;9083;49.156;8.982;2023-11-21T13:51:37;2.60;;;2.40;;
17915;SDS011;9083;49.156;8.982;2023-11-21T13:54:06;2.50;;;2.30;;
17915;SDS011;9083;49.156;8.982;2023-11-21T13:56:34;3.23;;;2.80;;
17915;SDS011;9083;49.156;8.982;2023-11-21T13:59:00;3.17;;;2.97;;
17915;SDS011;9083;49.156;8.982;2023-11-21T14:01:34;2.60;;;2.40;;
17915;SDS011;9083;49.156;8.982;2023-11-21T14:04:20;4.53;;;3.37;;
17915;SDS011;9083;49.156;8.982;2023-11-21T14:07:00;3.00;;;2.70;;
17915;SDS011;9083;49.156;8.982;2023-11-21T14:09:42;3.37;;;3.07;;
17915;SDS011;9083;49.156;8.982;2023-11-21T14:12:09;4.23;;;3.23;;
17915;SDS011;9083;49.156;8.982;2023-11-21T14:14:38;3.17;;;2.87;;
17915;SDS011;9083;49.156;8.982;2023-11-21T14:17:04;6.00;;;2.83;;
17915;SDS011;9083;49.156;8.982;2023-11-21T14:19:33;2.93;;;2.53;;
17915;SDS011;9083;49.156;8.982;2023-11-21T14:22:04;9.30;;;6.17;;
17915;SDS011;9083;49.156;8.982;2023-11-21T14:24:30;4.67;;;4.27;;
17915;SDS011;9083;49.156;8.982;2023-11-21T14:26:57;4.53;;;3.40;;
17915;SDS011;9083;49.156;8.982;2023-11-21T14:29:23;9.17;;;3.80;;
17915;SDS011;9083;49.156;8.982;2023-11-21T14:31:50;6.57;;;3.53;;
17915;SDS011;9083;49.156;8.982;2023-11-21T14:34:16;4.97;;;3.60;;
17915;SDS011;9083;49.156;8.982;2023-11-21T14:36:44;3.60;;;3.30;;
17915;SDS011;9083;49.156;8.982;2023-11-21T14:39:11;8.53;;;2.53;;
17915;SDS011;9083;49.156;8.982;2023-11-21T14:41:48;3.43;;;3.07;;
17915;SDS011;9083;49.156;8.982;2023-11-21T14:44:14;3.37;;;2.97;;
17915;SDS011;9083;49.156;8.982;2023-11-21T14:46:41;3.83;;;2.43;;
17915;SDS011;9083;49.156;8.982;2023-11-21T14:49:11;4.13;;;3.70;;
17915;SDS011;9083;49.156;8.982;2023-11-21T14:51:46;4.13;;;3.60;;
17915;SDS011;9083;49.156;8.982;2023-11-21T14:54:25;5.30;;;2.80;;
17915;SDS011;9083;49.156;8.982;2023-11-21T14:57:04;3.20;;;2.93;;
17915;SDS011;9083;49.156;8.982;2023-11-21T14:59:32;4.03;;;3.07;;
17915;SDS011;9083;49.156;8.982;2023-11-21T15:01:58;2.60;;;2.40;;